Time;durP1;ratioP1;P1;durP2;ratioP2;P2;SDS_P1;SDS_P2;PMS_P1;PMS_P2;Temp;Humidity;BMP_temperature;BMP_pressure;BME280_temperature;BME280_humidity;BME280_pressure;Samples;Min_cycle;Max_cycle;Signal;HPM_P1;HPM_P2
2022/07/31 00:02:02;;;;;;;7.00;6.30;;;;;;;19.37;74.70;94659.44;5071678;28;20494;-74
2022/07/31 00:04:27;;;;;;;6.65;5.97;;;;;;;19.41;74.56;94667.78;5070404;28;20064;-75
2022/07/31 00:06:53;;;;;;;6.82;5.60;;;;;;;19.35;74.78;94665.91;5070519;28;20411;-75
2022/07/31 00:09:18;;;;;;;6.38;5.40;;;;;;;19.40;74.87;94658.25;5070374;28;20505;-74
2022/07/31 00:11:44;;;;;;;8.32;5.95;;;;;;;19.40;74.67;94660.91;5091811;28;20027;-75
2022/07/31 00:14:10;;;;;;;6.72;5.75;;;;;;;19.46;74.38;94657.53;5090447;28;20040;-74
2022/07/31 00:16:36;;;;;;;5.97;5.40;;;;;;;19.38;73.37;94660.25;5073696;28;20036;-74
2022/07/31 00:19:01;;;;;;;8.52;5.25;;;;;;;19.36;73.76;94659.63;5091703;28;20085;-74
2022/07/31 00:21:27;;;;;;;6.10;5.53;;;;;;;19.29;73.63;94650.84;5090296;28;20020;-75
2022/07/31 00:23:52;;;;;;;5.95;5.35;;;;;;;19.23;73.53;94651.59;5073547;28;20036;-74
2022/07/31 00:26:18;;;;;;;6.43;5.80;;;;;;;19.24;73.14;94648.75;5090287;28;20032;-74
2022/07/31 00:28:44;;;;;;;6.18;5.57;;;;;;;19.22;73.25;94660.47;5091454;28;20027;-74
2022/07/31 00:31:09;;;;;;;5.60;5.10;;;;;;;19.27;73.44;94668.63;5073468;28;20047;-75
2022/07/31 00:33:35;;;;;;;6.20;5.60;;;;;;;19.18;73.12;94675.81;5090288;28;20077;-74
2022/07/31 00:36:00;;;;;;;6.18;5.57;;;;;;;19.06;73.57;94682.56;5073468;28;20433;-75
2022/07/31 00:38:26;;;;;;;8.02;5.25;;;;;;;19.01;74.25;94680.47;5091489;28;20414;-74
2022/07/31 00:40:51;;;;;;;6.80;4.95;;;;;;;18.93;74.23;94681.38;5089925;28;20044;-74
2022/07/31 00:43:19;;;;;;;6.95;5.20;;;;;;;18.89;73.72;94687.19;5091237;28;20024;-74
2022/07/31 00:45:45;;;;;;;5.65;5.05;;;;;;;18.88;73.71;94686.34;5091257;28;20040;-74
2022/07/31 00:48:11;;;;;;;6.28;5.00;;;;;;;18.75;74.15;94675.66;5073219;28;20497;-74
2022/07/31 00:50:36;;;;;;;9.00;4.80;;;;;;;18.80;74.27;94685.63;5090097;28;20036;-75
2022/07/31 00:53:02;;;;;;;8.25;5.28;;;;;;;18.78;74.25;94690.22;5089981;28;20474;-74
2022/07/31 00:55:28;;;;;;;5.50;4.65;;;;;;;18.80;74.51;94688.25;5090438;28;20115;-75
2022/07/31 00:57:53;;;;;;;6.10;5.50;;;;;;;18.65;75.02;94673.25;5056319;28;20031;-75
2022/07/31 01:00:19;;;;;;;7.20;5.65;;;;;;;18.68;74.81;94670.25;5072697;28;20056;-74
2022/07/31 01:02:44;;;;;;;7.35;5.95;;;;;;;18.80;74.92;94683.81;5089737;28;20054;-75
2022/07/31 01:05:09;;;;;;;6.25;5.63;;;;;;;18.82;74.59;94691.53;5073009;28;20035;-75
2022/07/31 01:07:35;;;;;;;8.90;5.70;;;;;;;18.65;74.40;94678.50;5088332;28;20085;-74
2022/07/31 01:10:04;;;;;;;6.80;5.72;;;;;;;18.54;75.20;94690.28;5069463;28;20490;-74
2022/07/31 01:12:37;;;;;;;6.40;5.65;;;;;;;18.58;74.98;94685.47;5088942;28;20417;-75
2022/07/31 01:15:04;;;;;;;6.88;5.60;;;;;;;18.42;74.63;94659.34;5089609;28;20111;-74
2022/07/31 01:17:30;;;;;;;6.68;5.03;;;;;;;18.38;74.48;94679.09;5089688;28;20024;-75
2022/07/31 01:19:55;;;;;;;7.78;5.53;;;;;;;18.29;74.77;94684.41;5072881;28;20475;-74
2022/07/31 01:22:42;;;;;;;6.30;5.70;;;;;;;18.29;75.68;94694.94;5077433;28;20041;-75
2022/07/31 01:25:08;;;;;;;7.15;5.20;;;;;;;18.29;75.39;94708.09;5070824;28;20583;-74
2022/07/31 01:28:15;;;;;;;5.75;4.93;;;;;;;18.31;75.00;94702.66;5070692;28;20060;-74
2022/07/31 01:31:01;;;;;;;5.63;4.93;;;;;;;18.23;74.48;94686.94;5027798;28;20051;-75
2022/07/31 01:33:29;;;;;;;7.82;5.13;;;;;;;18.02;75.60;94690.22;5069422;28;20159;-74
2022/07/31 01:36:01;;;;;;;5.93;4.82;;;;;;;17.92;75.77;94692.28;5053053;28;20082;-74
2022/07/31 01:38:31;;;;;;;7.75;5.45;;;;;;;17.86;75.48;94697.25;5053435;28;20032;-74
2022/07/31 01:40:58;;;;;;;6.35;5.43;;;;;;;17.79;74.83;94685.78;5052629;28;20185;-74
2022/07/31 01:43:30;;;;;;;5.97;5.38;;;;;;;17.82;74.47;94692.50;5052711;28;20032;-75
2022/07/31 01:45:56;;;;;;;7.63;5.68;;;;;;;17.62;75.45;94695.53;5052675;28;20043;-74
2022/07/31 01:48:22;;;;;;;7.15;5.47;;;;;;;17.56;76.06;94692.78;5069138;28;20115;-74
2022/07/31 01:50:48;;;;;;;6.40;5.68;;;;;;;17.45;76.67;94694.00;5052572;28;20037;-74
2022/07/31 01:53:17;;;;;;;8.73;5.68;;;;;;;17.65;76.45;94691.75;5052542;28;20538;-74
2022/07/31 01:55:43;;;;;;;7.38;5.63;;;;;;;17.65;76.53;94679.44;5036347;28;20041;-74
2022/07/31 01:58:09;;;;;;;6.55;5.95;;;;;;;17.66;76.21;94675.00;5035852;28;20482;-75
2022/07/31 02:00:35;;;;;;;7.78;6.20;;;;;;;17.74;76.05;94677.56;5052422;28;20055;-74
2022/07/31 02:03:01;;;;;;;7.68;6.00;;;;;;;17.68;76.13;94659.06;5068969;28;20033;-74
2022/07/31 02:05:26;;;;;;;7.22;6.25;;;;;;;17.76;76.09;94667.72;5053677;28;20468;-74
2022/07/31 02:07:52;;;;;;;7.80;6.45;;;;;;;17.74;76.26;94669.69;5060972;28;20020;-74
2022/07/31 02:10:17;;;;;;;6.63;5.60;;;;;;;17.79;76.24;94675.28;5093025;28;20036;-74
2022/07/31 02:12:43;;;;;;;7.22;6.30;;;;;;;17.81;75.99;94673.28;5076030;28;20035;-74
2022/07/31 02:15:10;;;;;;;8.73;5.60;;;;;;;17.92;75.80;94694.91;5076035;28;20039;-74
2022/07/31 02:17:36;;;;;;;7.03;5.75;;;;;;;17.96;75.47;94690.94;5092846;28;20039;-74
2022/07/31 02:20:03;;;;;;;6.95;5.65;;;;;;;17.86;75.38;94664.91;5092831;28;20028;-74
2022/07/31 02:22:28;;;;;;;7.55;5.90;;;;;;;17.95;75.53;94684.84;5074983;28;20043;-74
2022/07/31 02:24:54;;;;;;;6.72;6.00;;;;;;;17.80;75.90;94689.22;5075840;28;20032;-74
2022/07/31 02:27:19;;;;;;;7.45;6.13;;;;;;;17.69;75.61;94685.19;5092670;28;20081;-74
2022/07/31 02:29:45;;;;;;;7.20;5.97;;;;;;;17.67;75.50;94691.59;5075728;28;20485;-75
2022/07/31 02:32:11;;;;;;;7.80;7.10;;;;;;;17.76;74.83;94687.91;5092502;28;20032;-74
2022/07/31 02:34:36;;;;;;;6.82;6.07;;;;;;;17.68;74.86;94682.72;5075673;28;20036;-74
2022/07/31 02:37:02;;;;;;;7.38;6.50;;;;;;;17.60;74.78;94686.19;5058905;28;20028;-74
2022/07/31 02:39:28;;;;;;;7.70;6.88;;;;;;;17.58;74.82;94688.19;5092373;28;20025;-74
2022/07/31 02:41:54;;;;;;;7.88;6.72;;;;;;;17.37;75.76;94684.34;5092370;28;20114;-74
2022/07/31 02:44:19;;;;;;;11.35;6.93;;;;;;;17.39;75.69;94684.19;5075394;28;20035;-74
2022/07/31 02:46:45;;;;;;;9.05;7.35;;;;;;;17.41;76.10;94683.03;5075442;28;20032;-74
2022/07/31 02:49:13;;;;;;;10.32;7.95;;;;;;;17.40;76.30;94678.75;5075297;28;20036;-74
2022/07/31 02:51:40;;;;;;;8.85;7.22;;;;;;;17.39;76.74;94684.19;5075413;28;20032;-74
2022/07/31 02:54:05;;;;;;;8.77;7.55;;;;;;;17.57;76.11;94692.59;5092162;28;20478;-74
2022/07/31 02:56:31;;;;;;;8.27;7.47;;;;;;;17.65;75.64;94686.50;5092133;28;20035;-74
2022/07/31 02:58:57;;;;;;;10.45;7.95;;;;;;;17.68;75.16;94691.41;5075061;28;20102;-74
2022/07/31 03:01:22;;;;;;;9.95;8.88;;;;;;;17.70;75.12;94697.31;5091990;28;20071;-74
2022/07/31 03:03:49;;;;;;;9.00;8.10;;;;;;;17.76;74.92;94695.78;5091855;28;20035;-74
2022/07/31 03:06:15;;;;;;;8.88;8.05;;;;;;;17.83;74.76;94696.78;5075095;28;20028;-74
2022/07/31 03:08:40;;;;;;;8.52;7.72;;;;;;;17.74;74.81;94690.69;5080165;28;20092;-74
2022/07/31 03:11:06;;;;;;;8.45;7.45;;;;;;;17.75;74.85;94696.78;5071747;28;20486;-75
2022/07/31 03:13:32;;;;;;;8.68;7.80;;;;;;;17.71;74.71;94692.88;5071585;28;20470;-74
2022/07/31 03:15:58;;;;;;;8.85;7.95;;;;;;;17.60;74.90;94694.06;5071370;28;20033;-74
2022/07/31 03:18:24;;;;;;;8.65;7.72;;;;;;;17.47;75.24;94686.78;5054430;28;20016;-74
2022/07/31 03:20:52;;;;;;;9.23;7.85;;;;;;;17.62;75.32;94697.34;5054897;28;20101;-74
2022/07/31 03:23:20;;;;;;;9.63;7.38;;;;;;;17.65;75.14;94700.44;5055033;28;20474;-74
2022/07/31 03:25:47;;;;;;;8.73;7.45;;;;;;;17.63;75.46;94704.22;5054705;28;20468;-74
2022/07/31 03:28:12;;;;;;;10.40;7.82;;;;;;;17.72;75.03;94707.63;5038112;28;20028;-74
2022/07/31 03:30:38;;;;;;;8.65;7.65;;;;;;;17.73;74.81;94702.22;5071301;28;20105;-74
2022/07/31 03:33:03;;;;;;;10.00;7.45;;;;;;;17.80;74.63;94702.34;5072531;28;20065;-74
2022/07/31 03:35:29;;;;;;;8.48;7.35;;;;;;;17.89;74.39;94708.41;5054528;28;20048;-74
2022/07/31 03:37:54;;;;;;;7.72;6.75;;;;;;;17.90;74.62;94713.47;5072326;28;20530;-74
2022/07/31 03:40:20;;;;;;;13.00;7.30;;;;;;;17.95;75.16;94720.84;5072547;28;20333;-74
2022/07/31 03:42:47;;;;;;;9.75;7.50;;;;;;;17.86;75.15;94718.25;5054239;28;20043;-74
2022/07/31 03:45:12;;;;;;;9.38;7.30;;;;;;;17.86;75.27;94715.63;5070978;28;20037;-74
2022/07/31 03:47:38;;;;;;;7.63;6.75;;;;;;;17.98;75.28;94717.84;5037575;28;20414;-74
2022/07/31 03:50:04;;;;;;;9.52;7.10;;;;;;;18.00;75.53;94724.56;5054259;28;20090;-74
2022/07/31 03:52:29;;;;;;;8.65;7.13;;;;;;;17.98;75.46;94725.75;5054225;28;20533;-74
2022/07/31 03:54:55;;;;;;;9.13;7.25;;;;;;;17.98;75.33;94720.47;5054006;28;20036;-74
2022/07/31 03:57:21;;;;;;;14.88;7.63;;;;;;;17.94;75.47;94724.44;5053936;28;20490;-74
2022/07/31 03:59:47;;;;;;;9.07;7.50;;;;;;;18.04;75.66;94725.84;5082049;28;20048;-75
2022/07/31 04:02:12;;;;;;;8.82;7.13;;;;;;;18.12;74.91;94726.78;5073701;28;20028;-74
2022/07/31 04:04:38;;;;;;;8.10;7.03;;;;;;;18.19;75.55;94728.56;5089942;28;20040;-74
2022/07/31 04:07:04;;;;;;;8.90;7.95;;;;;;;18.13;75.38;94716.09;5073139;28;20032;-74
2022/07/31 04:09:29;;;;;;;8.52;7.63;;;;;;;18.18;76.06;94732.16;5062734;28;20032;-74
2022/07/31 04:11:55;;;;;;;8.77;7.43;;;;;;;18.20;75.92;94717.03;5072663;28;20395;-74
2022/07/31 04:14:20;;;;;;;8.27;7.40;;;;;;;18.36;75.45;94721.34;5070733;28;20036;-74
2022/07/31 04:16:46;;;;;;;9.50;8.07;;;;;;;18.34;75.75;94714.63;5045937;28;20031;-74
2022/07/31 04:19:11;;;;;;;8.43;7.55;;;;;;;18.39;76.07;94728.88;5067697;28;20521;-74
2022/07/31 04:21:37;;;;;;;8.82;7.10;;;;;;;18.47;75.92;94726.19;5053417;28;20399;-74
2022/07/31 04:24:02;;;;;;;9.30;7.55;;;;;;;18.50;75.94;94725.03;5090482;28;20406;-74
2022/07/31 04:26:28;;;;;;;11.85;8.23;;;;;;;18.50;76.29;94732.91;5072741;28;20086;-74
2022/07/31 04:28:53;;;;;;;9.45;8.10;;;;;;;18.47;76.62;94731.44;5079413;28;20470;-74
2022/07/31 04:31:19;;;;;;;10.93;7.85;;;;;;;18.57;76.42;94728.56;5061611;28;20037;-74
2022/07/31 04:33:44;;;;;;;10.02;8.55;;;;;;;18.65;76.44;94739.00;5071295;28;20036;-75
2022/07/31 04:36:10;;;;;;;10.57;8.23;;;;;;;18.66;75.99;94727.47;5046103;28;20069;-75
2022/07/31 04:38:35;;;;;;;8.77;7.65;;;;;;;18.71;74.58;94725.13;5071503;28;20023;-74
2022/07/31 04:41:01;;;;;;;9.68;8.77;;;;;;;18.65;74.92;94725.84;5069261;28;20040;-74
2022/07/31 04:43:26;;;;;;;10.30;9.30;;;;;;;18.61;75.79;94715.84;5051315;28;20024;-74
2022/07/31 04:45:51;;;;;;;11.38;10.23;;;;;;;18.67;76.06;94729.13;5059577;28;20405;-75
2022/07/31 04:48:17;;;;;;;10.48;9.38;;;;;;;18.62;75.78;94720.94;5084284;28;20027;-74
2022/07/31 04:50:42;;;;;;;10.25;9.13;;;;;;;18.74;74.63;94731.88;5090182;28;20036;-74
2022/07/31 04:53:08;;;;;;;10.23;9.15;;;;;;;18.86;74.87;94729.63;5075715;28;20028;-75
2022/07/31 04:55:33;;;;;;;9.88;8.98;;;;;;;18.85;73.89;94722.75;5069826;28;20028;-75
2022/07/31 04:57:59;;;;;;;10.13;8.85;;;;;;;18.86;74.69;94719.94;5066894;28;20036;-75
2022/07/31 05:00:25;;;;;;;10.27;8.85;;;;;;;18.90;73.87;94730.91;5046432;28;20072;-75
2022/07/31 05:02:51;;;;;;;10.98;9.38;;;;;;;18.91;74.15;94735.16;5083237;28;20036;-74
2022/07/31 05:05:17;;;;;;;10.07;9.00;;;;;;;18.86;73.53;94719.94;5087732;28;20055;-74
2022/07/31 05:07:43;;;;;;;11.57;8.88;;;;;;;19.02;73.76;94740.00;5072710;28;20322;-74
2022/07/31 05:10:08;;;;;;;11.55;8.38;;;;;;;19.02;74.29;94747.88;5069136;28;20032;-74
2022/07/31 05:12:34;;;;;;;9.55;8.63;;;;;;;19.10;74.09;94742.53;5071753;28;20029;-74
2022/07/31 05:14:59;;;;;;;10.10;8.65;;;;;;;19.09;74.26;94737.47;5087939;28;20032;-74
2022/07/31 05:17:25;;;;;;;9.48;8.57;;;;;;;19.18;73.67;94742.44;5082554;28;20491;-74
2022/07/31 05:19:50;;;;;;;9.40;8.20;;;;;;;19.17;73.74;94738.19;5053601;28;20036;-74
2022/07/31 05:22:16;;;;;;;11.25;8.50;;;;;;;19.22;72.12;94739.44;5071155;28;20043;-75
2022/07/31 05:24:41;;;;;;;10.23;9.23;;;;;;;19.00;73.53;94736.75;5080919;28;20033;-74
2022/07/31 05:27:07;;;;;;;12.23;9.82;;;;;;;18.77;74.88;94725.44;5052945;28;20043;-74
2022/07/31 05:29:32;;;;;;;10.60;9.60;;;;;;;18.97;74.65;94734.44;5070153;28;20036;-74
2022/07/31 05:31:58;;;;;;;10.40;9.40;;;;;;;19.02;74.02;94731.28;5054784;28;20028;-74
2022/07/31 05:34:23;;;;;;;9.38;8.48;;;;;;;19.05;74.43;94739.63;5084504;28;20029;-74
2022/07/31 05:36:49;;;;;;;10.52;9.52;;;;;;;19.08;75.21;94738.44;5055825;28;20036;-74
2022/07/31 05:39:16;;;;;;;9.60;8.70;;;;;;;19.11;73.80;94738.94;5050003;28;20033;-75
2022/07/31 05:41:42;;;;;;;10.52;8.75;;;;;;;19.12;73.36;94721.31;5084015;28;20031;-75
2022/07/31 05:44:07;;;;;;;9.90;9.00;;;;;;;19.27;73.28;94731.84;5085456;28;20390;-74
2022/07/31 05:46:33;;;;;;;9.82;8.77;;;;;;;19.25;74.43;94721.50;5089139;28;20036;-75
2022/07/31 05:48:58;;;;;;;8.70;7.88;;;;;;;19.32;74.49;94727.66;5081411;28;20027;-74
2022/07/31 05:51:24;;;;;;;10.25;8.50;;;;;;;19.25;72.81;94715.38;5076747;28;20040;-75
2022/07/31 05:53:49;;;;;;;9.68;8.73;;;;;;;19.35;72.89;94729.09;5075706;28;20027;-74
2022/07/31 05:56:14;;;;;;;10.55;8.48;;;;;;;19.39;72.84;94725.94;5076399;28;20486;-74
2022/07/31 05:58:40;;;;;;;8.90;8.05;;;;;;;19.45;73.04;94724.38;5076451;28;20039;-74
2022/07/31 06:01:05;;;;;;;9.43;8.38;;;;;;;19.48;74.25;94723.19;5078285;28;20052;-74
2022/07/31 06:03:34;;;;;;;9.35;8.35;;;;;;;19.52;73.67;94720.00;5074568;28;20059;-74
2022/07/31 06:06:01;;;;;;;9.50;8.32;;;;;;;19.71;71.73;94729.16;5091036;28;20097;-74
2022/07/31 06:08:27;;;;;;;9.07;8.25;;;;;;;19.80;72.44;94729.88;5081312;28;20031;-75
2022/07/31 06:10:53;;;;;;;8.70;7.90;;;;;;;19.83;71.78;94724.22;5069322;28;20059;-75
2022/07/31 06:45:59;;;;;;;10.95;9.95;;;;;;;22.22;62.27;94707.31;5145801;27;20936;-76
2022/07/31 06:48:24;;;;;;;9.80;8.80;;;;;;;22.44;61.77;94709.78;5106303;28;20039;-76
2022/07/31 06:50:50;;;;;;;10.52;9.32;;;;;;;22.57;62.04;94704.50;5118543;28;20031;-74
2022/07/31 06:53:15;;;;;;;10.68;9.57;;;;;;;22.83;59.51;94705.50;5111526;27;20019;-76
2022/07/31 06:55:41;;;;;;;11.60;10.40;;;;;;;22.79;58.93;94712.22;5127023;27;20034;-75
2022/07/31 06:58:06;;;;;;;11.77;10.57;;;;;;;22.73;58.67;94692.69;5126222;27;20026;-75
2022/07/31 07:00:32;;;;;;;12.07;10.50;;;;;;;22.69;58.46;94702.06;5135886;27;21096;-75
2022/07/31 07:02:57;;;;;;;12.38;11.07;;;;;;;22.68;60.82;94705.75;5114311;27;20125;-76
2022/07/31 07:05:23;;;;;;;11.65;10.48;;;;;;;22.77;59.96;94711.63;5131364;27;20036;-79
2022/07/31 07:07:50;;;;;;;12.30;11.02;;;;;;;22.89;59.14;94712.63;5128382;27;20031;-81
2022/07/31 07:10:15;;;;;;;11.57;10.38;;;;;;;22.69;57.99;94686.19;5137994;27;20110;-81
2022/07/31 07:12:41;;;;;;;12.18;11.05;;;;;;;22.91;57.70;94721.19;5111567;27;20034;-80
2022/07/31 07:15:07;;;;;;;12.52;10.85;;;;;;;22.88;58.57;94722.41;5119101;27;20084;-79
2022/07/31 07:17:33;;;;;;;11.93;10.68;;;;;;;22.73;59.29;94711.22;5111358;27;20109;-78
2022/07/31 07:19:59;;;;;;;13.77;10.90;;;;;;;22.52;59.10;94685.78;5125354;27;20114;-79
2022/07/31 07:22:24;;;;;;;13.23;11.75;;;;;;;22.59;59.27;94691.88;5096568;27;20063;-78
2022/07/31 07:24:50;;;;;;;13.85;12.20;;;;;;;22.89;58.75;94734.63;5130995;27;20424;-79
2022/07/31 07:27:15;;;;;;;13.05;11.70;;;;;;;22.85;59.17;94732.63;5134104;27;20409;-76
2022/07/31 07:29:41;;;;;;;12.27;11.05;;;;;;;22.81;58.61;94740.13;5132789;27;20427;-77
2022/07/31 07:32:06;;;;;;;12.45;11.23;;;;;;;22.61;58.92;94718.97;5132322;27;20031;-77
2022/07/31 07:34:32;;;;;;;13.20;11.82;;;;;;;22.77;59.80;94744.22;5129393;27;20031;-76
2022/07/31 07:36:58;;;;;;;12.50;11.20;;;;;;;22.82;58.73;94727.72;5129253;27;20020;-78
2022/07/31 07:39:23;;;;;;;12.40;11.20;;;;;;;22.94;59.63;94731.38;5087022;27;20739;-76
2022/07/31 07:41:49;;;;;;;14.32;12.82;;;;;;;22.96;59.25;94700.25;5133980;27;20034;-76
2022/07/31 07:44:14;;;;;;;13.40;12.10;;;;;;;23.30;58.02;94727.47;5134637;27;20055;-76
2022/07/31 07:46:40;;;;;;;12.98;11.60;;;;;;;23.28;58.24;94730.31;5121480;27;20035;-77
2022/07/31 07:49:05;;;;;;;12.57;11.27;;;;;;;23.27;57.88;94722.59;5114342;28;20039;-77
2022/07/31 07:51:31;;;;;;;14.32;12.07;;;;;;;23.34;57.99;94726.84;5114353;28;20061;-76
2022/07/31 07:53:56;;;;;;;13.43;12.10;;;;;;;23.50;57.30;94708.88;5095847;28;20481;-76
2022/07/31 07:56:21;;;;;;;14.23;11.80;;;;;;;23.45;57.18;94717.44;5100949;28;20035;-76
2022/07/31 07:58:48;;;;;;;12.98;11.32;;;;;;;23.46;58.45;94700.53;5071698;28;20493;-76
2022/07/31 08:01:13;;;;;;;12.57;11.30;;;;;;;23.38;57.49;94692.81;5100500;27;20020;-76
2022/07/31 08:03:39;;;;;;;12.32;11.02;;;;;;;23.54;57.10;94705.59;5047481;28;20420;-77
2022/07/31 08:06:07;;;;;;;12.63;11.43;;;;;;;23.60;57.27;94719.84;5072799;27;20028;-76
2022/07/31 08:08:32;;;;;;;12.63;11.25;;;;;;;23.69;56.80;94707.16;5091013;28;20118;-76
2022/07/31 08:10:59;;;;;;;13.25;11.75;;;;;;;23.83;57.33;94714.88;5070945;28;20039;-76
2022/07/31 08:13:25;;;;;;;12.93;11.63;;;;;;;23.76;56.72;94732.63;5085362;28;20570;-77
2022/07/31 08:15:50;;;;;;;12.68;11.40;;;;;;;23.70;56.87;94717.53;5085983;28;20027;-76
2022/07/31 08:18:16;;;;;;;12.70;11.40;;;;;;;23.72;57.18;94718.19;5066504;28;20027;-76
2022/07/31 08:20:42;;;;;;;12.30;11.05;;;;;;;23.85;57.55;94728.75;5081749;28;20032;-76
2022/07/31 08:23:07;;;;;;;12.18;10.98;;;;;;;23.96;56.61;94724.59;5057574;28;20085;-76
2022/07/31 08:25:33;;;;;;;11.90;10.70;;;;;;;24.11;55.68;94731.47;5072489;28;20031;-76
2022/07/31 08:27:58;;;;;;;11.77;9.95;;;;;;;24.07;56.60;94721.28;5084293;28;20405;-76
2022/07/31 08:30:24;;;;;;;10.38;9.27;;;;;;;24.16;54.88;94742.25;5105962;28;20035;-76
2022/07/31 08:32:50;;;;;;;10.52;8.90;;;;;;;24.11;55.09;94731.47;5069575;28;21045;-76
2022/07/31 08:35:17;;;;;;;10.70;8.95;;;;;;;24.15;55.17;94733.47;5097179;28;20030;-76
2022/07/31 08:37:42;;;;;;;9.57;8.60;;;;;;;24.21;55.59;94735.28;5087535;28;20020;-76
2022/07/31 08:40:08;;;;;;;9.15;8.25;;;;;;;24.12;54.64;94733.09;5065949;28;20093;-76
2022/07/31 08:42:35;;;;;;;9.73;8.73;;;;;;;24.05;55.86;94735.78;5066433;28;20024;-76
2022/07/31 08:45:00;;;;;;;10.50;8.90;;;;;;;23.90;56.47;94738.69;5076563;28;20052;-76
2022/07/31 08:47:26;;;;;;;10.40;8.85;;;;;;;23.94;56.86;94747.88;5111423;28;20027;-76
2022/07/31 08:49:51;;;;;;;9.32;8.25;;;;;;;24.08;55.48;94738.81;5076147;28;20092;-76
2022/07/31 08:52:22;;;;;;;9.00;8.10;;;;;;;24.26;55.88;94745.25;5070820;28;20039;-76
2022/07/31 08:54:51;;;;;;;10.50;8.25;;;;;;;24.25;56.48;94730.34;5102039;28;20107;-76
2022/07/31 08:57:16;;;;;;;9.05;8.15;;;;;;;24.15;55.73;94730.81;5044210;28;20500;-76
2022/07/31 08:59:42;;;;;;;10.10;8.35;;;;;;;24.19;55.71;94728.56;5069195;28;20036;-76
2022/07/31 09:02:08;;;;;;;8.30;7.50;;;;;;;24.28;55.40;94727.28;5099921;28;20023;-76
2022/07/31 09:04:34;;;;;;;8.80;7.90;;;;;;;24.47;55.30;94733.50;5063500;28;20565;-76
2022/07/31 09:07:00;;;;;;;8.82;8.02;;;;;;;24.45;54.64;94728.41;5081277;28;20024;-76
2022/07/31 09:09:28;;;;;;;8.07;7.28;;;;;;;24.61;55.63;94736.88;5081285;28;20043;-76
2022/07/31 09:11:54;;;;;;;8.85;7.88;;;;;;;24.72;54.61;94733.53;5079617;28;20028;-76
2022/07/31 09:14:24;;;;;;;8.25;7.43;;;;;;;24.76;54.64;94724.09;5073262;28;20473;-76
2022/07/31 09:16:51;;;;;;;7.95;7.15;;;;;;;24.94;54.71;94741.94;5072978;28;20534;-76
2022/07/31 09:19:16;;;;;;;7.90;7.10;;;;;;;25.12;53.45;94733.19;5082300;28;20031;-76
2022/07/31 09:21:45;;;;;;;8.18;7.20;;;;;;;25.25;52.55;94737.59;5079335;28;20031;-76
2022/07/31 09:24:11;;;;;;;8.23;7.43;;;;;;;25.28;52.09;94732.66;5050001;28;20027;-76
2022/07/31 09:26:39;;;;;;;8.43;7.63;;;;;;;25.28;51.37;94729.19;5072146;28;20028;-76
2022/07/31 09:29:07;;;;;;;8.90;7.60;;;;;;;25.16;51.59;94735.22;5066449;28;20485;-76
2022/07/31 09:31:36;;;;;;;9.63;8.63;;;;;;;25.22;51.96;94733.53;5080166;28;20042;-76
2022/07/31 09:34:01;;;;;;;11.70;10.50;;;;;;;25.19;51.90;94726.81;5068931;28;20035;-76
2022/07/31 09:36:27;;;;;;;10.52;9.43;;;;;;;25.08;52.08;94721.38;5093628;28;20031;-77
2022/07/31 09:38:52;;;;;;;10.48;9.43;;;;;;;25.11;52.56;94720.94;5096474;28;20389;-76
2022/07/31 09:41:19;;;;;;;10.05;9.05;;;;;;;25.06;51.96;94715.47;5062369;28;20331;-74
2022/07/31 09:43:55;;;;;;;10.90;9.80;;;;;;;24.94;52.13;94710.06;5070121;28;20039;-74
2022/07/31 09:46:20;;;;;;;11.38;10.27;;;;;;;24.71;51.89;94715.97;5083679;28;20015;-75
2022/07/31 09:48:50;;;;;;;11.45;10.35;;;;;;;24.54;52.08;94710.38;5092660;28;20027;-75
2022/07/31 09:51:15;;;;;;;11.23;10.07;;;;;;;24.68;52.05;94711.91;5090593;28;20037;-75
2022/07/31 09:53:44;;;;;;;13.65;12.25;;;;;;;24.66;52.33;94707.84;5073013;28;20036;-75
2022/07/31 09:56:11;;;;;;;13.20;11.75;;;;;;;24.80;51.92;94708.56;5076537;28;20028;-74
2022/07/31 09:58:40;;;;;;;12.07;10.80;;;;;;;24.85;50.41;94701.56;5056880;28;20067;-75
2022/07/31 10:01:09;;;;;;;11.73;10.60;;;;;;;24.68;49.51;94711.09;5077722;28;20027;-75
2022/07/31 10:03:38;;;;;;;12.93;11.50;;;;;;;24.66;49.07;94710.50;5072840;28;20062;-75
2022/07/31 10:06:07;;;;;;;14.10;12.65;;;;;;;24.80;48.36;94701.41;5088140;28;20032;-75
2022/07/31 10:08:35;;;;;;;13.18;11.88;;;;;;;24.74;49.02;94689.81;5057019;28;20543;-77
2022/07/31 10:11:01;;;;;;;13.52;12.13;;;;;;;24.72;49.39;94680.41;5056555;28;20106;-75
2022/07/31 10:13:26;;;;;;;13.43;12.13;;;;;;;24.70;49.96;94688.59;5076277;28;20055;-75
2022/07/31 10:15:52;;;;;;;12.93;11.63;;;;;;;24.85;50.37;94690.94;5071987;28;20481;-75
2022/07/31 10:18:17;;;;;;;14.43;12.93;;;;;;;24.96;50.76;94698.19;5081130;28;20531;-75
2022/07/31 10:20:46;;;;;;;13.30;12.10;;;;;;;24.88;49.00;94695.81;5072459;28;20463;-75
2022/07/31 10:23:15;;;;;;;12.77;11.50;;;;;;;24.87;48.89;94686.19;5092895;28;20080;-75
2022/07/31 10:25:46;;;;;;;12.23;10.55;;;;;;;24.79;48.75;94697.09;5072706;28;20046;-75
2022/07/31 10:28:11;;;;;;;12.48;11.27;;;;;;;24.39;49.89;94685.97;5051581;28;20036;-75
2022/07/31 10:30:37;;;;;;;12.55;11.38;;;;;;;24.49;49.90;94691.66;5055627;28;20028;-75
2022/07/31 10:33:06;;;;;;;12.48;11.27;;;;;;;24.44;50.31;94689.63;5084833;28;20023;-75
2022/07/31 10:35:32;;;;;;;12.60;11.40;;;;;;;24.38;50.15;94663.94;5081864;28;20050;-75
2022/07/31 10:38:06;;;;;;;12.85;11.65;;;;;;;24.60;50.66;94687.44;5066990;28;20024;-75
2022/07/31 10:40:48;;;;;;;13.45;12.13;;;;;;;24.58;50.00;94678.91;5073340;28;20462;-75
2022/07/31 10:43:28;;;;;;;12.75;11.55;;;;;;;24.51;50.09;94676.28;5047427;28;20024;-75
2022/07/31 10:45:54;;;;;;;13.52;12.32;;;;;;;24.67;48.64;94682.91;5081130;28;20332;-75
2022/07/31 10:48:20;;;;;;;12.43;11.25;;;;;;;24.68;48.54;94673.91;5075081;28;20072;-75
2022/07/31 10:50:46;;;;;;;13.70;12.43;;;;;;;24.48;49.06;94671.41;5085908;28;20047;-75
2022/07/31 10:53:14;;;;;;;11.85;10.75;;;;;;;24.74;49.31;94667.75;5072116;28;20505;-75
2022/07/31 10:55:39;;;;;;;12.48;11.27;;;;;;;24.74;47.61;94679.19;5038947;28;20043;-75
2022/07/31 10:58:09;;;;;;;12.30;11.20;;;;;;;24.90;47.99;94672.47;5064532;28;20020;-75
2022/07/31 11:00:34;;;;;;;12.75;11.50;;;;;;;24.95;48.47;94659.34;5078337;28;20027;-75
2022/07/31 11:03:17;;;;;;;12.48;11.35;;;;;;;24.86;48.24;94658.03;5074992;28;20076;-75
2022/07/31 11:05:58;;;;;;;11.90;10.73;;;;;;;24.88;47.88;94644.53;5072425;28;20107;-75
2022/07/31 11:08:24;;;;;;;12.30;11.05;;;;;;;25.13;48.09;94645.28;5074040;28;20052;-75
2022/07/31 11:10:51;;;;;;;11.77;10.68;;;;;;;25.18;47.42;94649.94;5095989;28;20070;-75
2022/07/31 11:13:16;;;;;;;10.60;9.50;;;;;;;25.36;47.07;94638.50;5073706;28;20051;-75
2022/07/31 11:15:42;;;;;;;12.07;10.18;;;;;;;25.29;46.55;94649.19;5066553;28;20063;-75
2022/07/31 11:18:11;;;;;;;12.07;10.88;;;;;;;25.46;46.13;94643.28;5088440;28;20058;-76
2022/07/31 11:20:37;;;;;;;10.97;10.00;;;;;;;25.48;45.77;94642.03;5090336;28;20031;-74
2022/07/31 11:23:07;;;;;;;11.30;10.27;;;;;;;25.42;45.98;94641.06;5095347;27;20087;-75
2022/07/31 11:25:34;;;;;;;11.20;10.20;;;;;;;25.40;46.48;94626.38;5085791;27;20031;-75
2022/07/31 11:28:26;;;;;;;11.07;10.07;;;;;;;25.50;46.79;94639.16;5089780;27;20091;-75
2022/07/31 11:30:59;;;;;;;10.32;9.43;;;;;;;25.61;46.29;94641.06;5106711;27;20040;-75
2022/07/31 11:33:33;;;;;;;10.77;9.77;;;;;;;25.68;45.28;94640.97;5090486;28;20047;-75
2022/07/31 11:36:13;;;;;;;10.40;9.40;;;;;;;25.83;44.86;94642.22;5080745;28;20032;-75
2022/07/31 11:38:40;;;;;;;10.73;9.75;;;;;;;25.89;44.63;94605.13;5058790;28;20414;-75
2022/07/31 11:41:06;;;;;;;10.85;9.93;;;;;;;25.98;45.17;94606.41;5073724;28;20032;-75
2022/07/31 11:43:33;;;;;;;10.63;9.63;;;;;;;26.05;45.37;94633.75;5077579;28;20493;-75
2022/07/31 11:45:59;;;;;;;10.90;9.90;;;;;;;26.16;44.74;94605.50;5083123;28;20050;-75
2022/07/31 11:48:25;;;;;;;11.27;10.18;;;;;;;26.20;45.30;94610.16;5092084;28;20040;-75
2022/07/31 11:50:51;;;;;;;11.43;10.38;;;;;;;26.26;44.58;94603.09;5077250;28;20027;-75
2022/07/31 11:53:17;;;;;;;10.98;9.90;;;;;;;26.40;45.02;94599.19;5076881;28;20485;-75
2022/07/31 11:55:59;;;;;;;11.25;10.15;;;;;;;26.49;45.19;94595.16;5093882;28;20039;-75
2022/07/31 11:58:26;;;;;;;10.55;9.65;;;;;;;26.58;44.96;94602.81;5093707;28;20402;-75